Rockwall's Hourly Summary for Friday, March 17, 2017
Hour Temp
(f)
RH
(%)
Solar Rad.
(MJ/m2)
Rainfall
(in)
Wind
(mph)
3/17/2017 12:00 AM 65 81 0 0 7.54
3/17/2017 1:00 AM 65 82 0 0 7.63
3/17/2017 2:00 AM 63 86 0 0 7.19
3/17/2017 3:00 AM 64 85 0 0 7.31
3/17/2017 4:00 AM 66 81 0 0 7.19
3/17/2017 5:00 AM 66 80 0 0 7.64
3/17/2017 6:00 AM 66 79 0 0 6.83
3/17/2017 7:00 AM 67 76 0 0 6.04
3/17/2017 8:00 AM 67 74 0.01 0 6.73
3/17/2017 9:00 AM 67 74 0.17 0 6.55
3/17/2017 10:00 AM 68 76 0.38 0 7.29
3/17/2017 11:00 AM 69 73 0.72 0 7.11
3/17/2017 12:00 PM 70 71 0.84 0 6.93
3/17/2017 1:00 PM 71 69 1.1 0 6.52
3/17/2017 2:00 PM 71 70 0.83 0 5.96
3/17/2017 3:00 PM 71 72 0.77 0 5.94
3/17/2017 4:00 PM 72 69 1.26 0 7.2
3/17/2017 5:00 PM 73 67 0.77 0 5.74
3/17/2017 6:00 PM 73 63 0.31 0 4.1
3/17/2017 7:00 PM 74 61 0.15 0 3.34
3/17/2017 8:00 PM 74 60 0.01 0 3.63
3/17/2017 9:00 PM 74 61 0 0 3.38
3/17/2017 10:00 PM 73 62 0 0 2.24
3/17/2017 11:00 PM 71 66 0 0 1.28
Data Summary 69 72 7.32 0.00 5.89